Time;durP1;ratioP1;P1;durP2;ratioP2;P2;SDS_P1;SDS_P2;PMS_P1;PMS_P2;Temp;Humidity;BMP_temperature;BMP_pressure;BME280_temperature;BME280_humidity;BME280_pressure;Samples;Min_cycle;Max_cycle;Signal;HPM_P1;HPM_P2
2021/12/29 00:00:37;;;;;;;5.35;0.80;;;19.50;99.90;;;;;;4975314;28;20022;-75
2021/12/29 00:03:04;;;;;;;3.67;0.80;;;19.50;99.90;;;;;;4975065;28;20045;-73
2021/12/29 00:05:32;;;;;;;3.85;1.13;;;19.50;99.90;;;;;;4975401;28;20033;-72
2021/12/29 00:07:59;;;;;;;3.58;0.80;;;19.50;99.90;;;;;;4975062;28;20033;-73
2021/12/29 00:10:27;;;;;;;4.85;0.82;;;19.40;99.90;;;;;;4975122;28;20438;-71
2021/12/29 00:12:56;;;;;;;4.88;1.15;;;19.30;99.90;;;;;;4974609;28;20102;-73
2021/12/29 00:15:27;;;;;;;3.75;0.90;;;19.30;99.90;;;;;;4976478;28;20026;-74
2021/12/29 00:17:56;;;;;;;5.40;0.60;;;19.40;99.90;;;;;;4979063;28;20041;-75
2021/12/29 00:20:29;;;;;;;3.17;0.77;;;19.40;99.90;;;;;;4978666;28;20034;-77
2021/12/29 00:23:03;;;;;;;2.97;0.73;;;19.50;99.90;;;;;;4974881;28;20387;-77
2021/12/29 00:25:31;;;;;;;4.40;0.82;;;19.70;99.90;;;;;;4974990;28;20023;-75
2021/12/29 00:28:00;;;;;;;3.45;0.60;;;19.80;99.90;;;;;;4975265;28;20035;-72
2021/12/29 00:30:28;;;;;;;5.88;1.10;;;19.90;99.90;;;;;;4976087;28;20368;-73
2021/12/29 00:32:57;;;;;;;7.13;0.77;;;20.00;99.90;;;;;;4975054;28;20027;-74
2021/12/29 00:35:24;;;;;;;3.38;0.68;;;20.10;99.90;;;;;;4974714;28;20094;-72
2021/12/29 00:37:51;;;;;;;4.82;0.90;;;20.20;99.90;;;;;;4974600;28;20023;-75
2021/12/29 00:40:19;;;;;;;4.32;0.85;;;20.40;99.90;;;;;;4974021;28;20023;-76
2021/12/29 00:42:46;;;;;;;3.95;0.93;;;20.60;99.90;;;;;;4974210;28;20019;-75
2021/12/29 00:45:14;;;;;;;7.72;1.90;;;20.80;99.90;;;;;;4975942;28;20121;-77
2021/12/29 00:47:42;;;;;;;4.78;0.75;;;20.90;99.90;;;;;;4975698;28;20039;-72
2021/12/29 00:50:13;;;;;;;2.70;0.70;;;21.00;99.90;;;;;;4973199;28;20026;-77
2021/12/29 00:52:42;;;;;;;3.92;0.70;;;21.10;99.90;;;;;;4973866;28;20534;-77
2021/12/29 00:55:10;;;;;;;5.28;0.73;;;21.10;99.90;;;;;;4973504;28;20122;-78
2021/12/29 00:57:38;;;;;;;5.75;1.20;;;21.20;99.90;;;;;;4973619;28;20034;-78
2021/12/29 01:00:13;;;;;;;3.72;0.80;;;21.20;99.90;;;;;;4981142;28;20025;-78
2021/12/29 01:02:42;;;;;;;5.15;0.70;;;21.40;99.90;;;;;;4993450;28;20044;-78
2021/12/29 01:05:11;;;;;;;3.70;0.90;;;21.50;99.90;;;;;;4993008;28;20030;-80
2021/12/29 01:07:38;;;;;;;3.83;1.08;;;21.50;99.90;;;;;;4993268;28;20085;-78
2021/12/29 01:10:06;;;;;;;3.75;0.60;;;21.50;99.90;;;;;;4979211;28;20023;-75
2021/12/29 01:12:34;;;;;;;5.13;0.85;;;21.50;99.90;;;;;;4967190;28;20492;-74
2021/12/29 01:15:03;;;;;;;2.72;0.60;;;21.70;99.90;;;;;;4968409;28;20030;-73
2021/12/29 01:17:31;;;;;;;3.55;0.70;;;21.80;99.90;;;;;;4968643;28;20058;-74
2021/12/29 01:19:58;;;;;;;5.65;1.20;;;21.90;99.90;;;;;;4968514;28;20046;-78
2021/12/29 01:22:27;;;;;;;5.00;0.70;;;22.00;99.90;;;;;;4970074;28;20015;-74
2021/12/29 01:24:54;;;;;;;4.90;0.73;;;22.20;99.90;;;;;;4970608;28;20046;-76
2021/12/29 01:27:22;;;;;;;2.90;1.17;;;22.30;99.90;;;;;;4970682;28;20443;-74
2021/12/29 01:29:49;;;;;;;2.72;0.50;;;22.30;99.90;;;;;;4969071;28;20034;-74
2021/12/29 01:32:17;;;;;;;1.80;0.40;;;22.50;99.90;;;;;;4968705;28;20042;-76
2021/12/29 01:34:45;;;;;;;2.08;0.50;;;22.60;99.90;;;;;;4969399;28;20019;-78
2021/12/29 01:37:13;;;;;;;3.45;0.80;;;22.70;99.90;;;;;;4969572;28;20034;-76
2021/12/29 01:39:41;;;;;;;4.25;0.70;;;22.80;99.90;;;;;;4968181;28;20034;-77
2021/12/29 01:42:09;;;;;;;2.90;0.60;;;23.00;99.90;;;;;;4970110;28;20011;-79
2021/12/29 01:44:36;;;;;;;1.88;0.40;;;23.30;99.90;;;;;;4966361;28;20041;-79
2021/12/29 01:47:05;;;;;;;2.88;0.50;;;23.30;99.90;;;;;;4968146;28;20114;-78
2021/12/29 01:49:32;;;;;;;3.53;0.50;;;23.70;99.90;;;;;;4968395;28;20031;-79
2021/12/29 01:52:10;;;;;;;1.88;0.30;;;23.80;99.80;;;;;;4968152;28;20046;-77
2021/12/29 01:54:38;;;;;;;3.08;0.50;;;23.80;99.60;;;;;;4967777;28;20173;-74
2021/12/29 01:57:10;;;;;;;2.88;0.50;;;23.90;98.50;;;;;;4966720;28;20704;-78
2021/12/29 01:59:38;;;;;;;3.65;0.50;;;23.80;97.90;;;;;;4968452;28;20122;-77
2021/12/29 02:02:07;;;;;;;3.38;0.70;;;24.00;99.60;;;;;;4967732;28;20475;-74
2021/12/29 02:04:34;;;;;;;3.25;0.60;;;23.80;98.90;;;;;;4966738;28;20035;-77
2021/12/29 02:07:11;;;;;;;2.03;0.60;;;23.80;98.90;;;;;;4967896;28;20066;-75
2021/12/29 02:09:38;;;;;;;2.67;0.50;;;23.70;97.50;;;;;;4967271;28;20065;-76
2021/12/29 02:12:06;;;;;;;1.63;0.47;;;23.70;98.30;;;;;;4967371;28;20019;-77
2021/12/29 02:14:34;;;;;;;3.40;0.60;;;23.70;98.30;;;;;;4966429;28;20057;-77
2021/12/29 02:17:02;;;;;;;4.28;0.43;;;23.70;97.90;;;;;;4962920;28;20057;-73
2021/12/29 02:19:29;;;;;;;3.95;1.13;;;23.80;96.90;;;;;;4964967;28;20045;-76
2021/12/29 02:22:06;;;;;;;1.55;0.90;;;23.80;96.80;;;;;;4968773;28;20380;-76
2021/12/29 02:24:38;;;;;;;3.20;0.30;;;23.80;96.40;;;;;;4971565;28;21070;-78
2021/12/29 02:27:07;;;;;;;6.18;0.50;;;24.20;98.30;;;;;;4971293;28;20077;-76
2021/12/29 02:29:35;;;;;;;2.85;0.40;;;24.50;95.40;;;;;;4969981;28;20030;-74
2021/12/29 02:32:04;;;;;;;2.60;0.50;;;24.60;95.70;;;;;;4970044;28;20375;-81
2021/12/29 02:34:33;;;;;;;3.42;0.63;;;24.70;94.80;;;;;;4968545;28;20066;-76
2021/12/29 02:37:03;;;;;;;5.45;1.10;;;24.70;93.70;;;;;;4969507;28;20038;-76
2021/12/29 02:39:32;;;;;;;3.17;0.80;;;24.80;93.80;;;;;;4970218;28;20118;-80
2021/12/29 02:42:04;;;;;;;2.45;0.32;;;24.80;94.20;;;;;;4970484;28;20077;-80
2021/12/29 02:44:39;;;;;;;3.22;0.82;;;25.20;94.00;;;;;;4969482;28;20039;-75
2021/12/29 02:47:07;;;;;;;1.35;0.40;;;25.30;92.20;;;;;;4971887;28;20027;-74
2021/12/29 02:49:34;;;;;;;2.45;0.50;;;25.40;91.00;;;;;;4968175;28;20110;-80
2021/12/29 02:52:02;;;;;;;2.75;0.50;;;25.60;91.60;;;;;;4970503;28;20023;-79
2021/12/29 02:54:29;;;;;;;3.33;0.50;;;25.60;92.30;;;;;;4970019;28;20890;-79
2021/12/29 02:56:56;;;;;;;2.83;0.43;;;25.40;92.70;;;;;;4970887;28;20483;-80
2021/12/29 02:59:24;;;;;;;2.85;0.60;;;25.20;93.20;;;;;;4972667;28;20034;-81
2021/12/29 03:01:52;;;;;;;4.95;0.60;;;25.00;93.70;;;;;;4972138;28;20038;-79
2021/12/29 03:04:23;;;;;;;2.33;0.68;;;24.70;94.40;;;;;;4971838;28;20054;-75
2021/12/29 03:06:50;;;;;;;5.28;1.42;;;24.50;95.10;;;;;;4972293;28;20031;-76
2021/12/29 03:09:18;;;;;;;4.22;1.15;;;24.30;95.30;;;;;;4970994;28;20074;-79
2021/12/29 03:11:46;;;;;;;4.55;0.90;;;24.10;95.30;;;;;;4970774;28;20114;-76
2021/12/29 03:14:15;;;;;;;1.92;0.50;;;24.00;94.90;;;;;;4970478;28;20392;-77
2021/12/29 03:16:42;;;;;;;3.85;0.70;;;23.90;95.40;;;;;;4971328;28;20113;-75
2021/12/29 03:19:10;;;;;;;3.65;0.65;;;23.70;95.50;;;;;;4970263;28;20077;-76
2021/12/29 03:21:38;;;;;;;3.28;0.30;;;23.50;95.10;;;;;;4970754;28;21347;-77
2021/12/29 03:24:06;;;;;;;2.25;0.45;;;23.40;95.00;;;;;;4972497;28;20094;-76
2021/12/29 03:26:34;;;;;;;5.55;0.68;;;23.40;95.30;;;;;;4970442;28;20022;-77
2021/12/29 03:29:02;;;;;;;3.55;1.45;;;23.60;95.30;;;;;;4970311;28;20070;-75
2021/12/29 03:31:32;;;;;;;2.90;0.60;;;23.90;95.70;;;;;;4970820;28;20027;-80
2021/12/29 03:34:00;;;;;;;4.10;0.52;;;24.50;94.60;;;;;;4969749;28;20503;-81
2021/12/29 03:36:28;;;;;;;5.53;0.40;;;24.70;93.10;;;;;;4968665;28;20030;-80
2021/12/29 03:38:55;;;;;;;2.58;0.70;;;24.60;93.60;;;;;;4970509;28;20030;-78
2021/12/29 03:41:24;;;;;;;4.95;1.30;;;24.30;94.30;;;;;;4970687;28;20034;-80
2021/12/29 03:43:51;;;;;;;70.20;30.70;;;24.30;94.70;;;;;;4970486;28;20089;-80
2021/12/29 03:46:19;;;;;;;9.38;2.90;;;24.20;94.00;;;;;;4970205;28;20365;-80
2021/12/29 03:48:48;;;;;;;4.55;1.38;;;24.70;95.00;;;;;;4969144;28;20046;-75
2021/12/29 03:51:15;;;;;;;3.17;0.70;;;24.70;94.50;;;;;;4970447;28;20062;-74
2021/12/29 03:53:43;;;;;;;12.20;4.38;;;24.50;94.00;;;;;;4970350;28;20105;-77
2021/12/29 03:56:10;;;;;;;8.48;1.70;;;24.00;95.40;;;;;;4970240;28;20027;-74
2021/12/29 03:58:37;;;;;;;4.93;2.17;;;23.80;95.80;;;;;;4970648;28;20109;-76
2021/12/29 04:01:08;;;;;;;4.07;1.15;;;23.70;95.90;;;;;;4969969;28;20026;-75
2021/12/29 04:03:36;;;;;;;8.55;0.95;;;23.70;95.70;;;;;;4969978;28;20038;-78
2021/12/29 04:06:04;;;;;;;3.17;0.80;;;24.00;96.40;;;;;;4969255;28;20027;-78
2021/12/29 04:08:31;;;;;;;3.55;0.60;;;24.30;95.30;;;;;;4970637;28;20101;-78
2021/12/29 04:10:59;;;;;;;3.45;0.60;;;24.20;95.60;;;;;;4969881;28;20053;-74
2021/12/29 04:13:27;;;;;;;6.95;1.23;;;24.10;96.20;;;;;;4971007;28;20053;-77
2021/12/29 04:15:55;;;;;;;2.95;0.60;;;24.20;96.20;;;;;;4970746;28;20499;-76
2021/12/29 04:18:26;;;;;;;6.40;1.10;;;24.20;95.20;;;;;;4969984;28;20042;-77
2021/12/29 04:21:00;;;;;;;5.70;0.77;;;24.30;95.90;;;;;;4970181;28;20582;-76
2021/12/29 04:23:37;;;;;;;4.38;0.80;;;24.30;95.10;;;;;;4968559;28;20134;-79
2021/12/29 04:26:08;;;;;;;4.35;0.90;;;24.50;95.30;;;;;;4969122;28;20031;-78
2021/12/29 04:28:35;;;;;;;1.55;0.43;;;24.80;95.20;;;;;;4969579;28;20422;-75
2021/12/29 04:31:07;;;;;;;3.40;0.82;;;24.90;93.40;;;;;;4969997;28;20443;-79
2021/12/29 04:33:36;;;;;;;13.27;1.50;;;24.80;93.30;;;;;;4969831;28;20114;-77
2021/12/29 04:36:05;;;;;;;2.45;0.43;;;24.60;93.60;;;;;;4969410;28;20383;-76
2021/12/29 04:38:32;;;;;;;3.70;0.52;;;24.40;94.10;;;;;;4969816;28;20387;-77
2021/12/29 04:40:59;;;;;;;4.43;0.70;;;24.00;94.20;;;;;;4969369;28;20031;-78
2021/12/29 04:43:27;;;;;;;3.05;0.52;;;24.00;95.00;;;;;;4969515;28;20058;-79
2021/12/29 04:45:55;;;;;;;2.80;0.60;;;24.00;94.00;;;;;;4968990;28;20047;-77
2021/12/29 04:48:24;;;;;;;2.42;0.57;;;23.90;94.80;;;;;;4969621;28;20046;-75
2021/12/29 04:51:02;;;;;;;4.07;0.80;;;24.20;94.30;;;;;;4969583;28;20031;-77
2021/12/29 04:53:30;;;;;;;4.03;0.55;;;25.10;94.40;;;;;;4969640;28;20019;-77
2021/12/29 04:55:57;;;;;;;3.08;0.65;;;25.60;93.70;;;;;;4970413;28;20031;-75
2021/12/29 04:58:25;;;;;;;3.60;0.70;;;25.80;93.50;;;;;;4969844;28;20109;-79
2021/12/29 05:00:53;;;;;;;3.88;0.80;;;25.80;93.70;;;;;;4969307;28;20030;-73
2021/12/29 05:03:21;;;;;;;2.63;0.60;;;25.70;93.60;;;;;;4969150;28;20084;-76
2021/12/29 05:08:26;;;;;;;2.67;0.45;;;24.60;95.10;;;;;;4968839;28;20031;-77
2021/12/29 05:10:55;;;;;;;1.40;0.30;;;24.40;94.40;;;;;;4968386;28;20692;-78
2021/12/29 05:13:24;;;;;;;2.78;0.40;;;24.40;93.50;;;;;;4969408;28;20019;-78
2021/12/29 05:15:51;;;;;;;1.65;0.75;;;24.40;93.60;;;;;;4969522;28;20487;-77
2021/12/29 05:18:18;;;;;;;5.15;0.60;;;24.20;93.60;;;;;;4968734;28;20376;-78
2021/12/29 05:20:46;;;;;;;2.67;0.50;;;24.10;93.60;;;;;;4969061;28;20388;-79
2021/12/29 05:23:13;;;;;;;1.85;0.40;;;24.00;93.30;;;;;;4964277;28;20043;-78
2021/12/29 05:25:41;;;;;;;3.17;0.32;;;23.90;92.80;;;;;;4966548;28;20384;-75
2021/12/29 05:28:09;;;;;;;2.45;0.65;;;23.90;92.70;;;;;;4967421;28;20035;-78
2021/12/29 05:30:36;;;;;;;5.32;0.50;;;23.80;92.20;;;;;;4967796;28;20026;-79
2021/12/29 05:33:05;;;;;;;1.63;0.30;;;23.60;92.60;;;;;;4968951;28;20035;-73
2021/12/29 05:35:33;;;;;;;2.65;0.40;;;23.60;92.70;;;;;;4969078;28;20527;-78
2021/12/29 05:38:01;;;;;;;1.98;0.55;;;23.50;92.80;;;;;;4968853;28;20037;-77
2021/12/29 05:40:29;;;;;;;3.22;0.40;;;23.50;93.10;;;;;;4968107;28;20110;-78
2021/12/29 05:42:58;;;;;;;4.20;0.73;;;23.60;92.80;;;;;;4967589;28;20088;-76
2021/12/29 05:45:28;;;;;;;3.63;0.40;;;23.60;92.40;;;;;;4968917;28;20023;-78
2021/12/29 05:47:56;;;;;;;2.20;0.50;;;23.80;92.90;;;;;;4950676;28;20030;-75
2021/12/29 05:50:27;;;;;;;2.97;0.50;;;24.40;92.40;;;;;;4966857;28;20612;-78
2021/12/29 05:52:56;;;;;;;3.17;0.60;;;25.20;92.20;;;;;;4968500;28;20074;-76
2021/12/29 05:55:24;;;;;;;4.78;0.38;;;25.60;90.10;;;;;;4968571;28;20109;-78
2021/12/29 05:57:52;;;;;;;2.20;0.50;;;25.90;88.40;;;;;;4969152;28;20392;-79
2021/12/29 06:00:21;;;;;;;2.25;0.57;;;26.10;88.00;;;;;;4968513;28;20030;-79
2021/12/29 06:02:49;;;;;;;3.58;0.30;;;26.10;88.40;;;;;;4968074;28;20620;-78
2021/12/29 06:05:17;;;;;;;1.77;0.45;;;26.00;87.40;;;;;;4968001;28;20029;-79
2021/12/29 06:07:44;;;;;;;3.92;0.43;;;25.80;87.70;;;;;;4967361;28;20070;-78
2021/12/29 06:10:12;;;;;;;3.50;0.40;;;25.70;88.90;;;;;;4966855;28;20538;-79
2021/12/29 06:12:41;;;;;;;1.40;0.32;;;25.80;88.30;;;;;;4967841;28;20034;-76
2021/12/29 06:15:09;;;;;;;2.22;0.32;;;25.80;87.00;;;;;;4968263;28;20031;-80
2021/12/29 06:17:37;;;;;;;3.80;0.57;;;25.80;87.60;;;;;;4966771;28;20031;-78
2021/12/29 06:20:06;;;;;;;3.85;0.60;;;25.90;86.50;;;;;;4967834;28;20113;-78
2021/12/29 06:22:34;;;;;;;3.17;0.50;;;26.00;86.80;;;;;;4968273;28;20511;-75
2021/12/29 06:25:02;;;;;;;2.75;0.70;;;25.90;87.40;;;;;;4967944;28;20043;-78
2021/12/29 06:27:31;;;;;;;3.85;0.57;;;26.00;87.70;;;;;;4966624;28;20035;-78
2021/12/29 06:29:58;;;;;;;3.15;0.32;;;25.80;88.90;;;;;;4967880;28;20035;-78
2021/12/29 06:32:26;;;;;;;2.90;0.50;;;25.70;90.00;;;;;;4966598;28;20121;-75
2021/12/29 06:34:54;;;;;;;4.85;0.40;;;25.70;89.00;;;;;;4967607;28;20027;-74
2021/12/29 06:37:22;;;;;;;3.50;0.50;;;25.60;89.60;;;;;;4967248;28;20135;-78
2021/12/29 06:39:50;;;;;;;4.20;1.40;;;25.30;90.10;;;;;;4967467;28;20107;-73
2021/12/29 06:42:18;;;;;;;1.90;0.50;;;25.30;90.30;;;;;;4967879;28;20026;-75
2021/12/29 06:44:47;;;;;;;2.85;0.50;;;25.10;90.30;;;;;;4967518;28;20030;-75
2021/12/29 06:47:16;;;;;;;3.42;0.40;;;25.00;91.20;;;;;;4967498;28;20149;-74
2021/12/29 06:49:43;;;;;;;4.47;0.52;;;24.80;90.00;;;;;;4966302;28;20031;-74
2021/12/29 06:52:11;;;;;;;3.55;0.50;;;24.50;90.90;;;;;;4966593;28;20030;-73
2021/12/29 06:54:39;;;;;;;4.97;0.60;;;24.40;90.70;;;;;;4967487;28;20054;-79
2021/12/29 06:57:06;;;;;;;1.92;0.65;;;24.30;90.80;;;;;;4967302;28;20069;-76
2021/12/29 06:59:34;;;;;;;1.90;0.52;;;24.20;91.60;;;;;;4967644;28;20042;-74
2021/12/29 07:02:02;;;;;;;2.58;0.40;;;24.20;92.10;;;;;;4967550;28;20023;-78
2021/12/29 07:04:30;;;;;;;2.92;0.70;;;24.50;92.10;;;;;;4967007;28;20030;-74
2021/12/29 07:06:57;;;;;;;3.58;0.40;;;24.70;91.60;;;;;;4968027;28;20514;-78
2021/12/29 07:09:25;;;;;;;3.10;0.50;;;24.70;91.50;;;;;;4971609;28;20100;-79
2021/12/29 07:11:52;;;;;;;4.57;0.73;;;24.80;91.40;;;;;;4972019;28;20035;-78
2021/12/29 07:14:21;;;;;;;1.65;0.40;;;24.70;91.70;;;;;;4971584;28;20683;-75
2021/12/29 07:16:50;;;;;;;2.55;0.50;;;24.50;91.30;;;;;;4970712;28;20060;-75
2021/12/29 07:19:19;;;;;;;2.15;0.30;;;24.20;92.10;;;;;;4970583;28;20026;-78
2021/12/29 07:21:47;;;;;;;4.07;0.50;;;23.90;92.30;;;;;;4970608;28;20027;-77
2021/12/29 07:24:16;;;;;;;3.10;0.80;;;23.60;92.50;;;;;;4969557;28;20042;-79
2021/12/29 07:26:44;;;;;;;2.20;0.40;;;23.40;93.00;;;;;;4969300;28;20439;-78
2021/12/29 07:29:11;;;;;;;2.90;0.70;;;23.30;93.60;;;;;;4968710;28;20039;-77
2021/12/29 07:31:39;;;;;;;3.17;1.17;;;23.30;93.90;;;;;;4970199;28;20034;-74
2021/12/29 07:34:07;;;;;;;4.68;0.77;;;23.20;93.80;;;;;;4969498;28;20026;-76
2021/12/29 07:36:35;;;;;;;2.35;0.40;;;23.00;93.80;;;;;;4970944;28;20027;-75
2021/12/29 07:39:03;;;;;;;3.33;0.77;;;22.90;94.20;;;;;;4970291;28;20046;-75
2021/12/29 07:41:32;;;;;;;3.03;0.52;;;22.80;94.30;;;;;;4970038;28;20023;-74
2021/12/29 07:43:59;;;;;;;3.00;0.40;;;22.80;94.10;;;;;;4970756;28;20762;-73
2021/12/29 07:46:32;;;;;;;3.63;0.70;;;22.80;94.30;;;;;;4955583;28;20027;-74
2021/12/29 07:49:00;;;;;;;2.03;0.43;;;22.80;94.50;;;;;;4973909;28;20035;-77
2021/12/29 07:51:27;;;;;;;5.10;0.98;;;22.80;94.30;;;;;;4974460;28;20085;-77
2021/12/29 07:53:55;;;;;;;3.47;0.93;;;22.80;94.30;;;;;;4974664;28;20085;-75
2021/12/29 07:56:23;;;;;;;3.75;0.40;;;22.80;94.20;;;;;;4974262;28;20102;-79
2021/12/29 07:58:50;;;;;;;2.90;0.70;;;22.60;94.50;;;;;;4973284;28;20035;-76
2021/12/29 08:01:18;;;;;;;2.20;0.40;;;22.50;94.70;;;;;;4975890;28;20018;-74
2021/12/29 08:03:45;;;;;;;4.70;1.20;;;22.50;94.70;;;;;;4976035;28;20035;-74
2021/12/29 08:06:15;;;;;;;5.35;0.68;;;22.40;95.10;;;;;;4973408;28;20023;-74
2021/12/29 08:08:42;;;;;;;3.03;0.50;;;22.40;95.30;;;;;;4975126;28;20042;-76
2021/12/29 08:11:10;;;;;;;4.88;1.88;;;22.40;95.50;;;;;;4975236;28;20110;-78
2021/12/29 08:13:37;;;;;;;2.78;0.80;;;22.30;95.70;;;;;;4968413;28;20466;-76
2021/12/29 08:16:05;;;;;;;4.43;0.70;;;22.20;95.70;;;;;;4968734;28;20048;-75
2021/12/29 08:18:33;;;;;;;7.38;1.30;;;22.30;95.70;;;;;;4968295;28;20031;-72
2021/12/29 08:21:00;;;;;;;4.57;0.85;;;22.30;95.80;;;;;;4969148;28;20035;-75
2021/12/29 08:23:27;;;;;;;3.60;0.88;;;22.20;95.80;;;;;;4968829;28;20097;-74
2021/12/29 08:25:55;;;;;;;5.20;0.80;;;22.30;95.60;;;;;;4969337;28;20026;-75
2021/12/29 08:28:22;;;;;;;2.30;0.50;;;22.20;95.80;;;;;;4969400;28;20081;-75
2021/12/29 08:30:51;;;;;;;1.85;0.70;;;22.10;95.60;;;;;;4968150;28;20027;-76
2021/12/29 08:33:19;;;;;;;2.63;0.47;;;22.10;95.80;;;;;;4968693;28;20026;-76
2021/12/29 08:35:46;;;;;;;6.65;1.55;;;22.00;96.00;;;;;;4969348;28;20062;-75
2021/12/29 08:38:14;;;;;;;2.95;0.50;;;21.90;96.20;;;;;;4969383;28;20050;-75
2021/12/29 08:40:42;;;;;;;3.38;0.93;;;21.90;96.60;;;;;;4969272;28;20779;-76
2021/12/29 08:43:09;;;;;;;4.18;0.70;;;21.90;96.90;;;;;;4968460;28;20022;-76
2021/12/29 08:45:38;;;;;;;4.18;0.90;;;21.80;97.10;;;;;;4969227;28;20035;-76
2021/12/29 08:48:05;;;;;;;8.30;1.42;;;21.80;96.70;;;;;;4970334;28;20113;-74
2021/12/29 08:50:33;;;;;;;3.88;1.20;;;21.80;97.10;;;;;;4969282;28;20025;-75
2021/12/29 08:53:03;;;;;;;6.90;1.63;;;21.70;97.10;;;;;;4969221;28;20503;-75
2021/12/29 08:55:32;;;;;;;3.47;1.00;;;21.60;97.00;;;;;;4969387;28;20023;-76
2021/12/29 08:57:59;;;;;;;8.70;1.63;;;21.60;97.10;;;;;;4969732;28;20026;-76
2021/12/29 09:00:27;;;;;;;4.45;1.40;;;21.50;97.40;;;;;;4968739;28;20062;-75
2021/12/29 09:02:55;;;;;;;5.63;2.60;;;21.50;97.60;;;;;;4968681;28;20467;-75
2021/12/29 09:05:22;;;;;;;3.22;0.90;;;21.50;97.50;;;;;;4969046;28;20034;-74
2021/12/29 09:07:50;;;;;;;3.10;1.30;;;21.40;97.70;;;;;;4968404;28;20037;-76
2021/12/29 09:10:20;;;;;;;5.25;0.80;;;21.40;97.50;;;;;;4968233;28;20042;-76
2021/12/29 09:12:51;;;;;;;3.85;1.08;;;21.30;97.80;;;;;;4968592;28;20034;-77
2021/12/29 09:15:20;;;;;;;2.97;1.17;;;21.30;98.00;;;;;;4968490;28;20114;-76
2021/12/29 09:17:47;;;;;;;5.68;1.02;;;21.20;98.00;;;;;;4968306;28;20019;-76
2021/12/29 09:20:27;;;;;;;2.80;0.90;;;21.20;98.10;;;;;;4968580;28;20042;-76
2021/12/29 09:22:58;;;;;;;3.13;0.95;;;21.10;98.40;;;;;;4968493;28;20038;-76
2021/12/29 09:25:26;;;;;;;3.60;0.90;;;21.10;98.60;;;;;;4968429;28;20129;-76
2021/12/29 09:27:53;;;;;;;5.15;1.10;;;21.10;98.70;;;;;;4968034;28;20178;-73
2021/12/29 09:30:23;;;;;;;4.07;1.00;;;21.10;98.90;;;;;;4967264;28;20026;-74
2021/12/29 09:32:51;;;;;;;6.25;1.45;;;21.10;99.00;;;;;;4968466;28;20546;-74
2021/12/29 09:35:20;;;;;;;7.28;1.95;;;21.00;99.10;;;;;;4968180;28;20757;-75
2021/12/29 09:37:48;;;;;;;6.32;2.00;;;21.00;99.20;;;;;;4968005;28;20019;-75
2021/12/29 09:40:18;;;;;;;2.78;1.30;;;21.00;99.20;;;;;;4968089;28;20039;-76
2021/12/29 09:42:46;;;;;;;5.13;1.15;;;20.90;99.40;;;;;;4968345;28;20053;-73
2021/12/29 09:45:14;;;;;;;3.20;0.77;;;20.80;99.30;;;;;;4968258;28;20129;-76
2021/12/29 09:47:41;;;;;;;3.28;1.20;;;20.70;99.40;;;;;;4967858;28;20090;-72
2021/12/29 09:50:12;;;;;;;7.07;3.90;;;20.70;99.70;;;;;;4965914;28;20041;-72
2021/12/29 09:52:41;;;;;;;4.38;1.33;;;20.60;99.90;;;;;;4967572;28;20022;-75
2021/12/29 09:55:12;;;;;;;3.13;1.15;;;20.50;99.90;;;;;;4967366;28;20530;-73
2021/12/29 09:57:46;;;;;;;5.10;2.05;;;20.50;99.90;;;;;;4967864;28;20027;-73
2021/12/29 10:00:29;;;;;;;3.17;1.10;;;20.50;99.90;;;;;;4967855;28;20053;-76
2021/12/29 10:02:59;;;;;;;3.28;1.15;;;20.50;99.90;;;;;;4967416;28;20027;-75
2021/12/29 10:05:27;;;;;;;5.47;2.25;;;20.40;99.90;;;;;;4969011;28;20033;-75
2021/12/29 10:08:10;;;;;;;3.97;1.48;;;20.40;99.90;;;;;;4971795;28;20181;-71
2021/12/29 10:10:41;;;;;;;5.97;1.60;;;20.40;99.90;;;;;;4967563;28;20031;-75
2021/12/29 10:13:10;;;;;;;4.15;1.70;;;20.30;99.90;;;;;;4967514;28;20033;-75
2021/12/29 10:15:46;;;;;;;6.50;2.22;;;20.30;99.90;;;;;;4967509;28;20392;-76
2021/12/29 10:18:25;;;;;;;5.70;1.20;;;20.30;99.90;;;;;;4967390;28;20035;-75
2021/12/29 10:20:58;;;;;;;8.07;4.50;;;20.20;99.90;;;;;;4966468;28;20598;-78
2021/12/29 10:23:34;;;;;;;4.15;1.38;;;20.20;99.90;;;;;;4965644;28;20034;-75
2021/12/29 10:26:11;;;;;;;4.03;1.88;;;20.10;99.90;;;;;;4966831;28;20669;-73
2021/12/29 10:28:47;;;;;;;4.53;1.88;;;20.10;99.90;;;;;;4966041;28;20125;-77
2021/12/29 10:31:19;;;;;;;4.40;1.10;;;20.00;99.90;;;;;;4966934;28;20037;-74
2021/12/29 10:33:53;;;;;;;3.58;1.38;;;19.90;99.90;;;;;;4966290;28;20117;-76
2021/12/29 10:36:30;;;;;;;6.03;1.33;;;19.90;99.90;;;;;;4965221;28;20035;-72
2021/12/29 10:39:16;;;;;;;3.90;1.60;;;19.90;99.90;;;;;;4965360;28;20023;-73
2021/12/29 10:42:14;;;;;;;4.70;1.48;;;19.90;99.90;;;;;;4966735;28;20118;-75
2021/12/29 10:44:52;;;;;;;2.95;1.40;;;19.90;99.90;;;;;;4970797;28;20019;-76
2021/12/29 10:47:25;;;;;;;4.30;1.25;;;19.80;99.90;;;;;;4969507;28;20043;-73
2021/12/29 10:50:00;;;;;;;6.18;2.88;;;19.80;99.90;;;;;;4969948;28;20039;-75
2021/12/29 10:52:49;;;;;;;6.70;1.90;;;19.80;99.90;;;;;;4969923;28;20113;-72
2021/12/29 10:55:31;;;;;;;4.28;1.20;;;19.70;99.90;;;;;;4969797;28;20031;-72
2021/12/29 10:58:10;;;;;;;4.75;1.60;;;19.70;99.90;;;;;;4969482;28;20043;-73
2021/12/29 11:00:41;;;;;;;5.82;2.60;;;19.50;99.90;;;;;;4969101;28;20074;-76
2021/12/29 11:03:22;;;;;;;4.28;1.50;;;19.50;99.90;;;;;;4968951;28;20130;-74
2021/12/29 11:05:58;;;;;;;2.83;0.93;;;19.50;99.90;;;;;;4969272;28;20105;-72
2021/12/29 11:08:47;;;;;;;4.70;2.05;;;19.40;99.90;;;;;;4968873;28;20070;-74
2021/12/29 11:11:15;;;;;;;4.05;2.13;;;19.50;99.90;;;;;;4968344;28;20031;-72
2021/12/29 11:13:42;;;;;;;12.32;2.63;;;19.40;99.90;;;;;;4969230;28;20039;-72
2021/12/29 11:16:10;;;;;;;7.97;2.00;;;19.50;99.90;;;;;;4969118;28;20062;-72
2021/12/29 11:18:50;;;;;;;5.15;2.03;;;19.40;99.90;;;;;;4968623;28;20052;-75
2021/12/29 11:21:31;;;;;;;5.68;1.60;;;19.50;99.90;;;;;;4970023;28;20023;-75
2021/12/29 11:24:23;;;;;;;5.78;2.30;;;19.40;99.90;;;;;;4820238;28;4333459;-75
2021/12/29 11:26:52;;;;;;;6.85;1.80;;;19.40;99.90;;;;;;4968586;28;20038;-73
2021/12/29 11:29:21;;;;;;;5.20;2.15;;;19.30;99.90;;;;;;4969924;28;20035;-74
2021/12/29 11:32:04;;;;;;;5.47;1.67;;;19.30;99.90;;;;;;4968581;28;20069;-76
2021/12/29 11:34:31;;;;;;;5.57;1.48;;;19.30;99.90;;;;;;4973841;28;20483;-77
2021/12/29 11:37:11;;;;;;;6.10;2.22;;;19.20;99.90;;;;;;4959743;28;20483;-76
2021/12/29 11:39:46;;;;;;;3.70;1.55;;;19.20;99.90;;;;;;4961326;28;20078;-76
2021/12/29 11:42:15;;;;;;;5.28;1.52;;;19.20;99.90;;;;;;4965991;28;20039;-74
2021/12/29 11:44:42;;;;;;;6.40;1.73;;;19.10;99.90;;;;;;4964821;28;20019;-73
2021/12/29 11:47:11;;;;;;;6.45;1.35;;;19.10;99.90;;;;;;4965266;28;20050;-73
2021/12/29 11:49:39;;;;;;;4.63;1.52;;;19.00;99.90;;;;;;4965637;28;20057;-74
2021/12/29 11:52:09;;;;;;;5.55;1.80;;;19.00;99.90;;;;;;4963697;28;20387;-75
2021/12/29 11:54:59;;;;;;;7.13;2.50;;;18.90;99.90;;;;;;4962897;28;20031;-74
2021/12/29 11:57:27;;;;;;;8.38;5.28;;;18.90;99.90;;;;;;4965408;28;20027;-75
2021/12/29 12:00:07;;;;;;;6.82;4.68;;;18.90;99.90;;;;;;4964708;28;20039;-75
2021/12/29 12:02:35;;;;;;;5.25;2.40;;;18.80;99.90;;;;;;4965611;28;20114;-76
2021/12/29 12:05:09;;;;;;;5.63;2.60;;;18.80;99.90;;;;;;4965203;28;20073;-74
2021/12/29 12:07:36;;;;;;;8.68;2.45;;;18.70;99.90;;;;;;4963954;28;20027;-73
2021/12/29 12:10:11;;;;;;;6.82;3.28;;;18.70;99.90;;;;;;4964724;28;20023;-76
2021/12/29 12:12:52;;;;;;;5.07;2.85;;;18.70;99.90;;;;;;4965065;28;20081;-76
2021/12/29 12:15:30;;;;;;;5.20;1.90;;;18.60;99.90;;;;;;4964801;28;20490;-76
2021/12/29 12:18:06;;;;;;;8.63;2.47;;;18.60;99.90;;;;;;4963583;28;20019;-77
2021/12/29 12:20:59;;;;;;;7.72;3.97;;;18.60;99.90;;;;;;4965269;28;20026;-74
2021/12/29 12:23:30;;;;;;;4.82;1.80;;;18.50;99.90;;;;;;4961180;28;20050;-76
2021/12/29 12:26:11;;;;;;;3.60;1.20;;;18.50;99.90;;;;;;4963198;28;20031;-76
2021/12/29 12:28:46;;;;;;;5.10;1.80;;;18.40;99.90;;;;;;4961378;28;20042;-76
2021/12/29 12:31:32;;;;;;;5.78;3.03;;;18.40;99.90;;;;;;4965015;28;20054;-76
2021/12/29 12:34:12;;;;;;;9.05;3.78;;;18.40;99.90;;;;;;4961943;28;20114;-75
2021/12/29 12:36:42;;;;;;;8.85;3.08;;;18.30;99.90;;;;;;4954940;28;20055;-76
2021/12/29 12:39:13;;;;;;;5.07;3.35;;;18.30;99.90;;;;;;4962881;28;20062;-76
2021/12/29 12:41:42;;;;;;;8.63;3.10;;;18.30;99.90;;;;;;4962369;28;20026;-77
2021/12/29 12:44:10;;;;;;;11.15;5.32;;;18.20;99.90;;;;;;4964330;28;20026;-74
2021/12/29 12:46:47;;;;;;;7.55;4.75;;;18.20;99.90;;;;;;4962254;28;20023;-75
2021/12/29 12:49:26;;;;;;;10.38;6.72;;;18.20;99.90;;;;;;4963861;28;20420;-75
2021/12/29 12:52:06;;;;;;;11.13;8.13;;;18.10;99.90;;;;;;4963515;28;20476;-76
2021/12/29 12:54:44;;;;;;;11.32;7.82;;;18.10;99.90;;;;;;4963712;28;20027;-76
2021/12/29 12:57:12;;;;;;;12.95;9.80;;;18.10;99.90;;;;;;4963033;28;20059;-74
2021/12/29 12:59:45;;;;;;;13.00;10.68;;;18.10;99.90;;;;;;4962290;28;20027;-74
2021/12/29 13:02:22;;;;;;;14.93;11.10;;;18.10;99.90;;;;;;4964321;28;20031;-73